My Profile
  1. Member Settings
  2. My Devices
  3. Sign Out
        More Settings
      Elev 1211 ft, 24.802 °S 65.469 °W

      Salta, AR

      Martin Miguel De Guemes Intl Airport Station61°

      Daily Observations

      DateTemp High/LowDew Pt High/LowHumidityWindMax WindWind GustPressurePrecip.Condition
      8/30/2026 66 °F / 57 °F 52 °F / 46 °F 66 % 12 mph - 25.86 in 0 in
      8/29/2026 68 °F / 54 °F 52 °F / 48 °F 65 % 13 mph - 25.84 in 0 in
      8/28/2026 79 °F / 50 °F 55 °F / 45 °F 65 % 17 mph - 25.7 in 0 in
      8/27/2026 97 °F / 46 °F 52 °F / 23 °F 50 % 17 mph - 25.64 in 0 in
      8/26/2026 90 °F / 45 °F 50 °F / 41 °F 58 % 14 mph - 25.76 in 0 in
      8/25/2026 75 °F / 39 °F 46 °F / 37 °F 67 % 14 mph - 25.9 in 0 in
      8/24/2026 63 °F / 50 °F 46 °F / 43 °F 65 % 8 mph - 26.04 in 0 in
      8/23/2026 63 °F / 39 °F 45 °F / 37 °F 69 % 10 mph - 26.06 in 0 in
      8/22/2026 68 °F / 41 °F 43 °F / 34 °F 54 % 13 mph - 26.08 in 0 in
      8/21/2026 81 °F / 41 °F 41 °F / 27 °F 53 % 15 mph - 26.08 in 0 in
      8/20/2026 72 °F / 36 °F 43 °F / 32 °F 63 % 13 mph - 26.08 in 0 in
      8/19/2026 63 °F / 45 °F 46 °F / 39 °F 79 % 9 mph - 26.08 in 0 in
      8/18/2026 55 °F / 46 °F 46 °F / 41 °F 84 % 10 mph - 26.06 in 0 in
      8/17/2026 55 °F / 48 °F 50 °F / 45 °F 86 % 9 mph - 25.86 in 0 in
      8/16/2026 70 °F / 43 °F 52 °F / 41 °F 75 % 16 mph - 25.8 in 0 in
      8/15/2026 70 °F / 37 °F 46 °F / 36 °F 74 % 13 mph - 25.85 in 0 in
      8/14/2026 64 °F / 36 °F 43 °F / 32 °F 70 % 14 mph - 25.96 in 0 in
      8/13/2026 63 °F / 34 °F 37 °F / 30 °F 62 % 13 mph - 26.01 in 0 in
      8/12/2026 63 °F / 32 °F 37 °F / 30 °F 66 % 14 mph - 25.93 in 0 in
      8/11/2026 54 °F / 41 °F 36 °F / 32 °F 62 % 9 mph - 26.09 in 0 in
      8/10/2026 50 °F / 43 °F 37 °F / 28 °F 56 % 10 mph - 26.21 in 0 in
      8/9/2026 64 °F / 36 °F 37 °F / 28 °F 55 % 14 mph - 25.96 in 0 in
      8/8/2026 79 °F / 34 °F 41 °F / 25 °F 56 % 17 mph - 25.77 in 0 in
      8/7/2026 63 °F / 43 °F 48 °F / 34 °F 58 % 12 mph - 25.89 in 0 in
      8/6/2026 93 °F / 50 °F 55 °F / 21 °F 55 % 20 mph - 25.77 in 0 in
      8/5/2026 81 °F / 50 °F 57 °F / 43 °F 69 % 13 mph - 25.86 in 0 in
      8/4/2026 75 °F / 57 °F 57 °F / 50 °F 63 % 14 mph - 25.91 in 0 in
      8/3/2026 81 °F / 46 °F 54 °F / 41 °F 61 % 13 mph - 25.89 in 0 in
      8/2/2026 81 °F / 43 °F 48 °F / 36 °F 54 % 12 mph - 25.85 in 0 in
      8/1/2026 81 °F / 52 °F 46 °F / 3 °F 27 % 12 mph - 25.88 in 0 in

      Charts

      Temperature
      Precipitation
      Wind
      essentialaccessibility.com
      We recognize our responsibility to use data and technology for good. We may use or share your data with our data vendors. Take control of your data.
      Glossary